Terminal Aerodrome Forecast
Issued by NWS

Home | Current Version | Previous Version | Text Only | Print | Product List | Glossary Off
Versions: 1 2 3 4 5 6 7 8 9 10 11 12 13 14 15 16 17

000
FTUS43 KIWX 261132
TAFSBN
TAF
KSBN 261132Z 2612/2712 VRB03KT P6SM SCT120 BKN200
     FM261700 32006KT P6SM SCT070 BKN150
     FM270100 05003KT P6SM BKN120
     FM271100 11005KT P6SM OVC080=

USA.gov is the U.S. government's official web portal to all federal, state and local government web resources and services.